Time;durP1;ratioP1;P1;durP2;ratioP2;P2;SDS_P1;SDS_P2;PMS_P1;PMS_P2;Temp;Humidity;BMP_temperature;BMP_pressure;BME280_temperature;BME280_humidity;BME280_pressure;Samples;Min_cycle;Max_cycle;Signal;HPM_P1;HPM_P2
2021/04/03 00:00:17;;;;;;;1.70;1.10;;;22.00;35.70;;;;;;5052596;28;20394;-58
2021/04/03 00:02:43;;;;;;;1.52;1.02;;;22.00;35.60;;;;;;5052572;28;20852;-58
2021/04/03 00:05:16;;;;;;;1.63;1.20;;;22.00;35.50;;;;;;5052490;28;20408;-58
2021/04/03 00:07:42;;;;;;;1.88;1.23;;;22.10;35.50;;;;;;5052047;28;20413;-58
2021/04/03 00:10:16;;;;;;;1.97;1.20;;;22.00;35.50;;;;;;5052277;28;20381;-58
2021/04/03 00:12:42;;;;;;;2.58;1.20;;;22.00;35.50;;;;;;5052401;28;20888;-58
2021/04/03 00:15:09;;;;;;;1.60;1.08;;;22.00;35.50;;;;;;5052170;28;20380;-59
2021/04/03 00:17:35;;;;;;;1.73;0.82;;;22.00;35.60;;;;;;5050536;28;20394;-59
2021/04/03 00:20:01;;;;;;;1.70;1.00;;;22.00;35.50;;;;;;5052338;28;20443;-58
2021/04/03 00:22:26;;;;;;;1.70;1.03;;;22.00;35.40;;;;;;5052250;28;20911;-58
2021/04/03 00:24:53;;;;;;;2.35;1.10;;;22.00;35.50;;;;;;5052042;28;20421;-58
2021/04/03 00:27:19;;;;;;;1.52;1.10;;;22.00;35.40;;;;;;5051906;28;20422;-58
2021/04/03 00:29:44;;;;;;;1.60;1.00;;;21.90;35.30;;;;;;5051674;28;20386;-57
2021/04/03 00:32:10;;;;;;;1.30;1.00;;;22.00;35.50;;;;;;5052005;28;20459;-58
2021/04/03 00:34:36;;;;;;;1.30;1.10;;;21.90;35.40;;;;;;5051988;28;20473;-57
2021/04/03 00:37:01;;;;;;;1.75;1.00;;;21.90;35.40;;;;;;5052015;28;20872;-57
2021/04/03 00:39:27;;;;;;;1.50;1.00;;;21.90;35.40;;;;;;5051673;28;20861;-57
2021/04/03 00:41:53;;;;;;;1.33;1.00;;;21.90;35.20;;;;;;5051915;28;20385;-57
2021/04/03 00:44:19;;;;;;;1.60;1.20;;;21.90;35.30;;;;;;5051469;28;20381;-58
2021/04/03 00:46:45;;;;;;;1.80;1.00;;;21.90;35.30;;;;;;5051634;28;20448;-57
2021/04/03 00:49:11;;;;;;;1.10;0.90;;;21.90;35.20;;;;;;5051587;28;20452;-57
2021/04/03 00:51:37;;;;;;;2.10;1.10;;;21.90;35.20;;;;;;5051346;28;20391;-57
2021/04/03 00:54:03;;;;;;;1.50;1.10;;;21.90;35.30;;;;;;5051699;28;20401;-57
2021/04/03 00:56:29;;;;;;;1.35;0.90;;;21.90;35.10;;;;;;5050925;28;20381;-57
2021/04/03 00:58:55;;;;;;;1.60;1.00;;;21.80;35.10;;;;;;5051721;28;20401;-57
2021/04/03 01:01:21;;;;;;;1.25;1.00;;;21.80;35.20;;;;;;5051598;28;20409;-57
2021/04/03 01:03:47;;;;;;;1.55;1.10;;;21.80;35.10;;;;;;5051149;28;20919;-57
2021/04/03 01:06:13;;;;;;;1.67;1.17;;;21.80;35.10;;;;;;5051399;28;20382;-57
2021/04/03 01:08:38;;;;;;;1.30;1.00;;;21.80;34.90;;;;;;5051651;28;20385;-57
2021/04/03 01:11:06;;;;;;;1.30;0.98;;;21.80;35.00;;;;;;5051474;28;20394;-57
2021/04/03 01:13:31;;;;;;;1.60;1.10;;;21.80;35.10;;;;;;5050934;28;20799;-57
2021/04/03 01:16:33;;;;;;;1.20;0.90;;;21.80;35.10;;;;;;5051527;28;20399;-57
2021/04/03 01:19:33;;;;;;;1.50;1.00;;;21.80;34.90;;;;;;5051620;28;20381;-57
2021/04/03 01:22:17;;;;;;;1.20;0.85;;;21.80;35.00;;;;;;5051439;28;20881;-57
2021/04/03 01:25:20;;;;;;;1.33;0.82;;;21.70;34.80;;;;;;5051337;28;20377;-57
2021/04/03 01:28:12;;;;;;;1.48;0.90;;;21.70;35.00;;;;;;5027755;28;20452;-57
2021/04/03 01:30:42;;;;;;;1.50;1.00;;;21.70;34.80;;;;;;5031787;28;20869;-57
2021/04/03 01:33:10;;;;;;;1.17;0.85;;;21.70;35.10;;;;;;5051105;28;20398;-57
2021/04/03 01:36:10;;;;;;;1.00;0.82;;;21.70;35.00;;;;;;5050720;28;20853;-57
2021/04/03 01:38:38;;;;;;;1.50;0.90;;;21.70;34.90;;;;;;5051154;28;20428;-57
2021/04/03 01:41:05;;;;;;;1.33;0.98;;;21.70;35.00;;;;;;5051035;28;20382;-57
2021/04/03 01:43:39;;;;;;;1.30;0.90;;;21.70;35.00;;;;;;5050718;28;20469;-57
2021/04/03 01:46:07;;;;;;;1.40;0.93;;;21.70;34.90;;;;;;5051375;28;20492;-57
2021/04/03 01:48:35;;;;;;;2.10;1.00;;;21.70;35.00;;;;;;5051002;28;20421;-57
2021/04/03 01:51:01;;;;;;;1.35;0.90;;;21.60;35.00;;;;;;5051172;28;20377;-57
2021/04/03 01:53:28;;;;;;;1.10;0.73;;;21.60;34.80;;;;;;5050835;28;20417;-57
2021/04/03 01:55:56;;;;;;;1.25;0.80;;;21.70;35.20;;;;;;5050731;28;20378;-57
2021/04/03 01:58:22;;;;;;;1.05;0.70;;;21.70;35.20;;;;;;5051083;28;20929;-57
2021/04/03 02:00:48;;;;;;;1.10;0.80;;;21.80;35.20;;;;;;5051023;28;20877;-57
2021/04/03 02:03:14;;;;;;;1.23;0.70;;;21.80;35.00;;;;;;5051023;28;20385;-57
2021/04/03 02:05:41;;;;;;;1.10;0.90;;;21.90;34.90;;;;;;5050699;28;20444;-57
2021/04/03 02:08:09;;;;;;;1.20;0.80;;;22.00;34.80;;;;;;5054357;28;20409;-57
2021/04/03 02:10:37;;;;;;;1.27;0.80;;;22.00;34.70;;;;;;5054853;28;20472;-58
2021/04/03 02:13:05;;;;;;;1.02;0.70;;;22.00;34.70;;;;;;5054732;28;20385;-57
2021/04/03 02:15:31;;;;;;;1.13;0.80;;;22.10;34.60;;;;;;5054402;28;20392;-57
2021/04/03 02:17:58;;;;;;;1.00;0.75;;;22.10;34.60;;;;;;5054207;28;20386;-57
2021/04/03 02:20:25;;;;;;;1.13;0.75;;;22.10;34.50;;;;;;5054619;28;20899;-57
2021/04/03 02:22:51;;;;;;;1.17;0.77;;;22.10;34.50;;;;;;5054434;28;20480;-62
2021/04/03 02:25:17;;;;;;;1.13;0.80;;;22.20;34.50;;;;;;5054553;28;21008;-60
2021/04/03 02:27:44;;;;;;;0.93;0.67;;;22.10;34.40;;;;;;5053942;28;20468;-57
2021/04/03 02:30:15;;;;;;;1.25;0.82;;;22.20;34.30;;;;;;5054427;28;20390;-57
2021/04/03 02:32:47;;;;;;;1.30;0.90;;;22.20;34.30;;;;;;5054448;28;20393;-57
2021/04/03 02:35:14;;;;;;;1.20;0.90;;;22.20;34.20;;;;;;5054275;28;20397;-58
2021/04/03 02:37:40;;;;;;;1.48;0.90;;;22.30;34.20;;;;;;5053716;28;20385;-57
2021/04/03 02:40:08;;;;;;;1.30;0.90;;;22.30;34.20;;;;;;5054038;28;20897;-57
2021/04/03 02:42:39;;;;;;;1.90;1.08;;;22.30;34.10;;;;;;5054185;28;20907;-57
2021/04/03 02:45:08;;;;;;;1.50;0.90;;;22.30;34.10;;;;;;5053889;28;20804;-57
2021/04/03 02:47:42;;;;;;;1.95;1.08;;;22.30;34.00;;;;;;5053291;28;20409;-58
2021/04/03 02:50:14;;;;;;;2.22;1.30;;;22.30;34.00;;;;;;5053992;28;20400;-57
2021/04/03 02:52:40;;;;;;;1.50;1.00;;;22.30;34.00;;;;;;5053972;28;20443;-57
2021/04/03 02:55:08;;;;;;;1.83;1.37;;;22.30;33.90;;;;;;5053560;28;20417;-58
2021/04/03 02:57:36;;;;;;;1.80;1.30;;;22.40;33.90;;;;;;5053825;28;20466;-58
2021/04/03 03:00:05;;;;;;;1.85;1.10;;;22.40;33.80;;;;;;5053609;28;20416;-58
2021/04/03 03:02:33;;;;;;;1.83;1.20;;;22.40;33.80;;;;;;5053730;28;20408;-57
2021/04/03 03:05:00;;;;;;;1.80;1.20;;;22.40;33.80;;;;;;5053825;28;20385;-58
2021/04/03 03:07:26;;;;;;;2.03;1.42;;;22.40;33.80;;;;;;5053582;28;20552;-58
2021/04/03 03:09:53;;;;;;;1.83;1.30;;;22.40;33.70;;;;;;5053146;28;20392;-59
2021/04/03 03:12:21;;;;;;;1.92;1.27;;;22.40;33.80;;;;;;5053095;28;20393;-58
2021/04/03 03:14:50;;;;;;;1.65;1.20;;;22.40;33.70;;;;;;5053777;28;20393;-58
2021/04/03 03:17:16;;;;;;;1.80;1.35;;;22.40;33.70;;;;;;5053269;28;20393;-59
2021/04/03 03:19:42;;;;;;;1.60;1.20;;;22.40;33.70;;;;;;5052314;28;20395;-57
2021/04/03 03:22:09;;;;;;;1.52;1.10;;;22.40;33.60;;;;;;5053268;28;20464;-58
2021/04/03 03:24:35;;;;;;;1.87;1.20;;;22.40;33.60;;;;;;5053387;28;20429;-57
2021/04/03 03:27:02;;;;;;;1.80;1.30;;;22.50;33.60;;;;;;5053188;28;20404;-57
2021/04/03 03:29:30;;;;;;;1.65;1.27;;;22.50;33.60;;;;;;5053183;28;20400;-57
2021/04/03 03:31:55;;;;;;;1.90;1.40;;;22.50;33.50;;;;;;5053102;28;20377;-57
2021/04/03 03:34:22;;;;;;;2.08;1.40;;;22.50;33.50;;;;;;5053068;28;20954;-57
2021/04/03 03:36:48;;;;;;;1.90;1.35;;;22.50;33.50;;;;;;5053126;28;20385;-57
2021/04/03 03:39:14;;;;;;;1.70;1.40;;;22.50;33.40;;;;;;5053039;28;20389;-57
2021/04/03 03:41:40;;;;;;;1.80;1.30;;;22.50;33.40;;;;;;5052593;28;20876;-57
2021/04/03 03:44:08;;;;;;;1.48;1.20;;;22.50;33.40;;;;;;5052905;28;20394;-57
2021/04/03 03:46:35;;;;;;;2.08;1.30;;;22.50;33.30;;;;;;5052678;28;20413;-57
2021/04/03 03:49:02;;;;;;;2.20;1.23;;;22.50;33.30;;;;;;5052889;28;20447;-57
2021/04/03 03:51:28;;;;;;;2.15;1.33;;;22.50;33.30;;;;;;5052836;28;20385;-57
2021/04/03 03:53:54;;;;;;;1.90;1.20;;;22.50;33.30;;;;;;5052298;28;20738;-57
2021/04/03 03:56:19;;;;;;;1.80;1.20;;;22.50;33.20;;;;;;5052690;28;20378;-57
2021/04/03 03:58:46;;;;;;;2.10;1.33;;;22.50;33.20;;;;;;5052709;28;20386;-57
2021/04/03 04:01:12;;;;;;;1.83;1.23;;;22.50;33.20;;;;;;5052595;28;20385;-57
2021/04/03 04:03:37;;;;;;;1.50;1.10;;;22.50;33.80;;;;;;5052077;28;20447;-57
2021/04/03 04:06:04;;;;;;;1.65;1.30;;;22.50;33.20;;;;;;5052724;28;20860;-57
2021/04/03 04:08:30;;;;;;;1.80;1.38;;;22.50;33.10;;;;;;5052190;28;20425;-57
2021/04/03 04:10:56;;;;;;;1.80;1.23;;;22.50;33.10;;;;;;5052463;28;20381;-57
2021/04/03 04:13:21;;;;;;;1.73;1.20;;;22.50;33.10;;;;;;5052324;28;20496;-57
2021/04/03 04:15:47;;;;;;;1.57;1.20;;;22.50;33.10;;;;;;5051872;28;20504;-57
2021/04/03 04:18:13;;;;;;;1.67;1.08;;;22.50;33.10;;;;;;5052047;28;20389;-57
2021/04/03 04:20:39;;;;;;;1.90;1.30;;;22.50;33.00;;;;;;5052264;28;20397;-57
2021/04/03 04:23:04;;;;;;;1.60;1.20;;;22.50;33.00;;;;;;5052203;28;20393;-57
2021/04/03 04:25:30;;;;;;;1.75;1.23;;;22.50;33.00;;;;;;5052215;28;20396;-57
2021/04/03 04:27:56;;;;;;;2.10;1.50;;;22.50;33.00;;;;;;5051518;28;20981;-57
2021/04/03 04:30:21;;;;;;;1.77;1.38;;;22.50;33.00;;;;;;5051182;28;20737;-58
2021/04/03 04:32:47;;;;;;;2.00;1.40;;;22.50;33.00;;;;;;5052217;28;20393;-57
2021/04/03 04:35:14;;;;;;;2.03;1.40;;;22.50;32.90;;;;;;5051970;28;20388;-57
2021/04/03 04:37:41;;;;;;;1.95;1.40;;;22.50;32.90;;;;;;5051564;28;20389;-57
2021/04/03 04:40:08;;;;;;;2.03;1.58;;;22.50;32.90;;;;;;5051876;28;20399;-57
2021/04/03 04:42:34;;;;;;;2.47;1.63;;;22.50;32.90;;;;;;5051816;28;20420;-57
2021/04/03 04:45:00;;;;;;;1.90;1.40;;;22.50;32.90;;;;;;5051724;28;20441;-57
2021/04/03 04:47:26;;;;;;;1.83;1.48;;;22.50;32.90;;;;;;5051522;28;20413;-58
2021/04/03 04:49:52;;;;;;;2.08;1.55;;;22.50;32.90;;;;;;5051377;28;20389;-58
2021/04/03 04:52:18;;;;;;;2.20;1.70;;;22.50;32.90;;;;;;5051533;28;20405;-59
2021/04/03 04:54:44;;;;;;;2.08;1.40;;;22.50;32.90;;;;;;5051653;28;20749;-57
2021/04/03 04:57:10;;;;;;;2.92;1.75;;;22.50;32.80;;;;;;5051328;28;20401;-67
2021/04/03 04:59:35;;;;;;;3.10;1.60;;;22.60;32.90;;;;;;5051409;28;20416;-57
2021/04/03 05:02:02;;;;;;;5.07;1.98;;;22.50;32.90;;;;;;5051264;28;20954;-57
2021/04/03 05:04:27;;;;;;;6.80;1.80;;;22.50;32.90;;;;;;5051431;28;20419;-57
2021/04/03 05:06:53;;;;;;;4.43;1.80;;;22.60;33.00;;;;;;5051215;28;20485;-57
2021/04/03 05:09:19;;;;;;;5.75;1.73;;;22.50;32.90;;;;;;5051380;28;20478;-57
2021/04/03 05:11:44;;;;;;;5.22;1.60;;;22.60;32.80;;;;;;5049652;28;20409;-57
2021/04/03 05:14:10;;;;;;;4.77;1.70;;;22.60;32.80;;;;;;5051483;28;20417;-57
2021/04/03 05:16:36;;;;;;;4.10;1.50;;;22.60;32.80;;;;;;5051531;28;20752;-57
2021/04/03 05:19:02;;;;;;;3.45;1.60;;;22.60;32.80;;;;;;5051417;28;20390;-57
2021/04/03 05:21:27;;;;;;;2.47;1.50;;;22.60;32.70;;;;;;5051738;28;20481;-57
2021/04/03 05:23:53;;;;;;;2.43;1.60;;;22.50;32.70;;;;;;5051087;28;20866;-57
2021/04/03 05:26:19;;;;;;;2.88;1.48;;;22.50;32.60;;;;;;5051377;28;20480;-57
2021/04/03 05:28:44;;;;;;;3.23;1.50;;;22.60;32.60;;;;;;5051315;28;20435;-57
2021/04/03 05:31:11;;;;;;;2.72;1.30;;;22.50;32.60;;;;;;5051193;28;20394;-57
2021/04/03 05:33:37;;;;;;;2.70;1.50;;;22.50;32.50;;;;;;5051206;28;20950;-57
2021/04/03 05:36:03;;;;;;;3.45;1.20;;;22.60;32.60;;;;;;5051193;28;20381;-57
2021/04/03 05:38:29;;;;;;;2.33;1.50;;;22.60;32.60;;;;;;5050880;28;20912;-57
2021/04/03 05:40:54;;;;;;;3.15;1.52;;;22.60;32.60;;;;;;5051455;28;20385;-57
2021/04/03 05:43:22;;;;;;;3.87;1.40;;;22.50;32.50;;;;;;5055236;28;20880;-57
2021/04/03 05:45:52;;;;;;;2.40;1.48;;;22.50;32.50;;;;;;5054429;28;20448;-57
2021/04/03 05:48:19;;;;;;;2.63;1.48;;;22.60;32.50;;;;;;5053790;28;20417;-57
2021/04/03 05:50:45;;;;;;;2.30;1.30;;;22.50;32.40;;;;;;5055124;28;20897;-57
2021/04/03 05:53:11;;;;;;;2.20;1.20;;;22.50;32.40;;;;;;5055076;28;20393;-57
2021/04/03 05:55:37;;;;;;;2.10;1.40;;;22.50;32.40;;;;;;5054891;28;20793;-57
2021/04/03 05:58:02;;;;;;;4.57;1.33;;;22.50;32.40;;;;;;5054731;28;20951;-57
2021/04/03 06:00:28;;;;;;;2.00;1.20;;;22.50;32.30;;;;;;5054873;28;20385;-57
2021/04/03 06:02:54;;;;;;;3.70;2.10;;;22.50;32.40;;;;;;5054918;28;20519;-57
2021/04/03 06:05:20;;;;;;;2.50;1.60;;;22.50;32.30;;;;;;5054787;28;20439;-57
2021/04/03 06:07:46;;;;;;;2.70;1.63;;;22.40;32.40;;;;;;5054282;28;20405;-57
2021/04/03 06:10:12;;;;;;;3.13;1.70;;;22.30;32.40;;;;;;5054638;28;20397;-57
2021/04/03 06:12:41;;;;;;;2.75;1.73;;;22.30;32.70;;;;;;5054696;28;20869;-57
2021/04/03 06:15:11;;;;;;;4.25;1.77;;;22.30;33.00;;;;;;5054655;28;20389;-57
2021/04/03 06:17:36;;;;;;;5.05;2.10;;;22.30;33.60;;;;;;5054682;28;20385;-57
2021/04/03 06:20:02;;;;;;;4.83;1.90;;;22.40;33.30;;;;;;5054081;28;20377;-57
2021/04/03 06:22:41;;;;;;;5.53;1.90;;;22.40;33.30;;;;;;5054611;28;20872;-57
2021/04/03 06:25:07;;;;;;;4.13;1.90;;;22.40;33.50;;;;;;5054488;28;20385;-57
2021/04/03 06:27:32;;;;;;;4.77;1.90;;;22.30;33.40;;;;;;5054146;28;20424;-57
2021/04/03 06:29:58;;;;;;;6.10;1.90;;;22.30;33.50;;;;;;5053860;28;20759;-57
2021/04/03 06:32:30;;;;;;;4.43;1.85;;;22.30;33.60;;;;;;5054644;28;20382;-57
2021/04/03 06:34:56;;;;;;;4.53;2.00;;;22.30;33.70;;;;;;5054261;28;20453;-57
2021/04/03 06:37:29;;;;;;;5.03;1.95;;;22.30;33.90;;;;;;5054111;28;20389;-57
2021/04/03 06:40:04;;;;;;;4.13;1.88;;;22.30;34.20;;;;;;5053704;28;20400;-57
2021/04/03 06:42:55;;;;;;;4.55;1.70;;;22.20;33.90;;;;;;5053981;28;20392;-60
2021/04/03 06:45:33;;;;;;;7.07;2.00;;;22.20;33.90;;;;;;5054340;28;20413;-57
2021/04/03 06:48:06;;;;;;;2.67;1.80;;;22.20;34.00;;;;;;5053526;28;20854;-57
2021/04/03 06:50:35;;;;;;;3.83;2.00;;;22.20;34.10;;;;;;5054028;28;20746;-57
2021/04/03 06:53:29;;;;;;;4.70;1.75;;;22.20;34.10;;;;;;5052796;28;20885;-57
2021/04/03 06:55:54;;;;;;;2.85;1.85;;;22.10;34.10;;;;;;5051175;28;20404;-58
2021/04/03 06:58:20;;;;;;;3.43;1.67;;;22.10;34.10;;;;;;5053727;28;20412;-58
2021/04/03 07:00:49;;;;;;;3.65;1.70;;;22.10;34.10;;;;;;5053477;28;20730;-57
2021/04/03 07:03:14;;;;;;;3.78;1.70;;;22.10;34.10;;;;;;5053606;28;20390;-58
2021/04/03 07:05:41;;;;;;;3.58;2.00;;;22.10;34.10;;;;;;5053777;28;20796;-57
2021/04/03 07:08:07;;;;;;;4.30;1.90;;;22.10;34.10;;;;;;5053426;28;20779;-57
2021/04/03 07:10:35;;;;;;;3.38;1.88;;;22.10;34.20;;;;;;5053656;28;20396;-57
2021/04/03 07:13:01;;;;;;;3.70;1.70;;;22.10;34.20;;;;;;5052339;28;20864;-57
2021/04/03 07:15:28;;;;;;;4.68;1.70;;;22.10;34.20;;;;;;5053443;28;20885;-57
2021/04/03 07:17:56;;;;;;;5.50;1.87;;;22.10;34.20;;;;;;5052677;28;20422;-57
2021/04/03 07:20:27;;;;;;;2.38;1.40;;;22.10;34.20;;;;;;5053401;28;20390;-57
2021/04/03 07:23:06;;;;;;;3.78;1.70;;;22.10;34.20;;;;;;5053404;28;20404;-57
2021/04/03 07:25:35;;;;;;;4.47;1.65;;;22.10;34.20;;;;;;5053314;28;20788;-57
2021/04/03 07:28:01;;;;;;;6.97;1.80;;;22.10;34.30;;;;;;5052848;28;20483;-57
2021/04/03 07:30:35;;;;;;;5.70;1.80;;;22.10;34.80;;;;;;5053208;28;20853;-57
2021/04/03 07:33:10;;;;;;;4.25;1.48;;;22.10;34.50;;;;;;5053278;28;20390;-57
2021/04/03 07:35:55;;;;;;;2.85;1.52;;;22.10;34.50;;;;;;5053087;28;20381;-57
2021/04/03 07:38:23;;;;;;;4.13;1.67;;;22.10;34.30;;;;;;5053046;28;20396;-57
2021/04/03 07:40:56;;;;;;;4.97;1.50;;;22.10;34.40;;;;;;5053065;28;20435;-57
2021/04/03 07:43:40;;;;;;;3.70;1.70;;;22.00;34.30;;;;;;5052993;28;20431;-57
2021/04/03 07:46:08;;;;;;;4.15;1.60;;;22.10;34.40;;;;;;5052322;28;20774;-57
2021/04/03 07:48:54;;;;;;;6.35;1.80;;;22.10;34.60;;;;;;5052387;28;20422;-57
2021/04/03 07:51:23;;;;;;;3.70;1.55;;;22.10;34.90;;;;;;5051623;28;20722;-57
2021/04/03 07:53:53;;;;;;;4.68;1.50;;;22.10;34.70;;;;;;5052653;28;20394;-57
2021/04/03 07:56:20;;;;;;;4.90;1.65;;;22.10;34.60;;;;;;5052675;28;20385;-58
2021/04/03 07:58:51;;;;;;;5.00;1.80;;;22.10;34.60;;;;;;5052622;28;20388;-57
2021/04/03 08:01:18;;;;;;;4.63;1.40;;;22.10;34.40;;;;;;5045373;28;20761;-62
2021/04/03 08:03:57;;;;;;;5.22;1.70;;;22.10;34.30;;;;;;5034800;28;20387;-57
2021/04/03 08:06:40;;;;;;;3.63;1.35;;;22.10;34.10;;;;;;5032020;28;20387;-57
2021/04/03 08:09:12;;;;;;;6.53;1.40;;;22.10;34.20;;;;;;5031526;28;20411;-57
2021/04/03 08:11:38;;;;;;;4.50;1.42;;;22.10;34.20;;;;;;5032664;28;20414;-57
2021/04/03 08:14:05;;;;;;;3.03;1.30;;;22.10;33.90;;;;;;5031984;28;20917;-58
2021/04/03 08:16:32;;;;;;;5.00;1.33;;;22.00;33.90;;;;;;5032450;28;20384;-57
2021/04/03 08:18:59;;;;;;;3.05;1.50;;;22.00;34.10;;;;;;5032337;28;20391;-57
2021/04/03 08:21:28;;;;;;;5.05;1.50;;;22.00;34.20;;;;;;5032340;28;20531;-57
2021/04/03 08:23:55;;;;;;;3.10;1.40;;;22.00;34.00;;;;;;5031897;28;20416;-57
2021/04/03 08:26:23;;;;;;;3.78;1.40;;;22.10;33.90;;;;;;5032180;28;20818;-57
2021/04/03 08:28:50;;;;;;;3.30;1.50;;;22.10;33.90;;;;;;5032204;28;20902;-57
2021/04/03 08:31:25;;;;;;;4.55;1.50;;;22.10;33.90;;;;;;5032120;28;20391;-57
2021/04/03 08:33:56;;;;;;;2.85;1.30;;;22.10;33.70;;;;;;5031958;28;20384;-57
2021/04/03 08:36:24;;;;;;;2.88;1.40;;;22.10;34.20;;;;;;5032099;28;20448;-57
2021/04/03 08:38:51;;;;;;;3.50;1.47;;;22.20;33.60;;;;;;5032237;28;20484;-57
2021/04/03 08:41:18;;;;;;;2.45;1.15;;;22.20;33.50;;;;;;5031990;28;20733;-57
2021/04/03 08:43:44;;;;;;;3.85;1.40;;;22.20;33.40;;;;;;5032033;28;20396;-57
2021/04/03 08:46:13;;;;;;;4.10;1.40;;;22.20;33.30;;;;;;5031256;28;20410;-57
2021/04/03 08:48:43;;;;;;;3.22;1.33;;;22.20;33.30;;;;;;5031695;28;20445;-57
2021/04/03 08:51:10;;;;;;;3.90;1.40;;;22.30;33.30;;;;;;5031865;28;20406;-57
2021/04/03 08:53:37;;;;;;;3.22;1.40;;;22.30;33.30;;;;;;5031834;28;20395;-57
2021/04/03 08:56:03;;;;;;;3.33;1.25;;;22.30;33.20;;;;;;5031492;28;20414;-57
2021/04/03 08:58:29;;;;;;;2.67;1.17;;;22.30;33.20;;;;;;5031753;28;20873;-57
2021/04/03 09:00:55;;;;;;;3.10;1.10;;;22.30;33.10;;;;;;5030509;28;20395;-57
2021/04/03 09:03:21;;;;;;;4.05;1.30;;;22.30;33.10;;;;;;5031674;28;20395;-57
2021/04/03 09:05:48;;;;;;;4.13;1.50;;;22.30;33.10;;;;;;5031552;28;20867;-57
2021/04/03 09:08:24;;;;;;;2.38;1.30;;;22.30;33.10;;;;;;5031259;28;20407;-57
2021/04/03 09:10:58;;;;;;;2.20;1.30;;;22.40;33.10;;;;;;5031619;28;20882;-57
2021/04/03 09:13:34;;;;;;;2.95;1.33;;;22.30;33.00;;;;;;5031617;28;20411;-57
2021/04/03 09:16:07;;;;;;;2.97;1.20;;;22.40;33.00;;;;;;5030591;28;20380;-57
2021/04/03 09:18:32;;;;;;;3.08;1.15;;;22.40;33.00;;;;;;5031496;28;20391;-57
2021/04/03 09:20:58;;;;;;;1.95;1.23;;;22.40;33.00;;;;;;5031491;28;20433;-57
2021/04/03 09:23:24;;;;;;;2.63;1.20;;;22.40;32.90;;;;;;5031366;28;20386;-57
2021/04/03 09:26:01;;;;;;;2.20;1.13;;;22.40;32.90;;;;;;5031188;28;20387;-57
2021/04/03 09:28:41;;;;;;;5.13;1.30;;;22.40;32.80;;;;;;5031252;28;20422;-57
2021/04/03 09:31:09;;;;;;;4.05;1.50;;;22.40;32.80;;;;;;5031343;28;20466;-57
2021/04/03 09:33:47;;;;;;;3.05;1.30;;;22.40;32.50;;;;;;5031388;28;20391;-58
2021/04/03 09:36:15;;;;;;;3.03;1.30;;;22.30;32.60;;;;;;5030989;28;20394;-57
2021/04/03 09:38:41;;;;;;;4.15;1.40;;;22.30;32.60;;;;;;5031334;28;20396;-58
2021/04/03 09:41:19;;;;;;;3.70;1.20;;;22.30;32.60;;;;;;5031320;28;20391;-58
2021/04/03 09:43:45;;;;;;;6.75;1.77;;;22.30;32.30;;;;;;5031337;28;20441;-58
2021/04/03 09:46:11;;;;;;;5.13;1.80;;;22.30;32.10;;;;;;5030521;28;20402;-60
2021/04/03 09:48:37;;;;;;;7.27;1.93;;;22.30;32.10;;;;;;5031112;28;20748;-58
2021/04/03 09:51:07;;;;;;;7.60;4.35;;;22.40;32.10;;;;;;5031087;28;20437;-58
2021/04/03 09:53:32;;;;;;;7.22;2.30;;;22.40;32.10;;;;;;5029810;28;20410;-57
2021/04/03 09:55:58;;;;;;;9.57;2.27;;;22.30;32.40;;;;;;5030714;28;20421;-57
2021/04/03 09:58:24;;;;;;;9.95;2.20;;;22.30;32.50;;;;;;5031159;28;20395;-58
2021/04/03 10:00:50;;;;;;;10.05;2.30;;;22.30;32.60;;;;;;5029859;28;20392;-57
2021/04/03 10:03:16;;;;;;;8.45;2.28;;;22.40;32.90;;;;;;5031137;28;20389;-57
2021/04/03 10:05:42;;;;;;;9.32;2.50;;;22.40;33.20;;;;;;5030969;28;20747;-57
2021/04/03 10:08:07;;;;;;;6.77;2.30;;;22.40;32.40;;;;;;5030529;28;20877;-57
2021/04/03 10:10:33;;;;;;;5.78;2.13;;;22.40;33.00;;;;;;5030956;28;20787;-57
2021/04/03 10:12:59;;;;;;;12.63;4.53;;;22.40;32.80;;;;;;5030659;28;20472;-57
2021/04/03 10:15:25;;;;;;;7.82;2.90;;;22.40;32.80;;;;;;5031024;28;20386;-57
2021/04/03 10:17:51;;;;;;;8.35;2.63;;;22.40;32.70;;;;;;5030626;28;20421;-57
2021/04/03 10:20:17;;;;;;;7.28;2.90;;;22.40;32.70;;;;;;5030178;28;20426;-57
2021/04/03 10:22:43;;;;;;;7.07;2.85;;;22.50;32.50;;;;;;5030397;28;20426;-57
2021/04/03 10:25:10;;;;;;;9.30;3.33;;;22.50;32.50;;;;;;5030620;28;20476;-57
2021/04/03 10:27:36;;;;;;;7.65;3.42;;;22.50;32.40;;;;;;5031856;28;20419;-57
2021/04/03 10:30:03;;;;;;;6.03;3.10;;;22.50;32.40;;;;;;5034021;28;20398;-58
2021/04/03 10:32:28;;;;;;;6.10;3.63;;;22.60;32.40;;;;;;5033994;28;20399;-57
2021/04/03 10:34:54;;;;;;;8.83;6.70;;;22.60;32.40;;;;;;5034387;28;20509;-57
2021/04/03 10:37:20;;;;;;;8.98;5.80;;;22.50;32.30;;;;;;5034276;28;20383;-58
2021/04/03 10:39:45;;;;;;;8.60;5.27;;;22.50;32.30;;;;;;5034326;28;20387;-57
2021/04/03 10:42:13;;;;;;;59.25;8.93;;;22.40;32.40;;;;;;5033680;28;20911;-57
2021/04/03 10:44:38;;;;;;;30.10;8.93;;;22.50;32.50;;;;;;5033960;28;20395;-57
2021/04/03 10:47:04;;;;;;;21.33;7.83;;;22.50;32.50;;;;;;5034053;28;20414;-57
2021/04/03 10:49:31;;;;;;;19.23;7.07;;;22.40;32.40;;;;;;5033844;28;20819;-57
2021/04/03 10:51:56;;;;;;;13.73;6.20;;;22.40;32.30;;;;;;5033802;28;20441;-57
2021/04/03 10:54:23;;;;;;;11.70;5.50;;;22.50;32.20;;;;;;5033713;28;20411;-57
2021/04/03 10:56:49;;;;;;;14.35;6.05;;;22.50;32.10;;;;;;5034085;28;20419;-57
2021/04/03 10:59:15;;;;;;;14.05;5.00;;;22.50;32.00;;;;;;5033933;28;20431;-57
2021/04/03 11:01:40;;;;;;;13.45;5.40;;;22.50;31.90;;;;;;5033994;28;20375;-57
2021/04/03 11:04:06;;;;;;;12.75;5.00;;;22.50;31.90;;;;;;5033354;28;20444;-57
2021/04/03 11:06:32;;;;;;;13.77;4.60;;;22.60;31.80;;;;;;5033805;28;20395;-57
2021/04/03 11:08:58;;;;;;;10.15;5.10;;;22.60;31.70;;;;;;5033513;28;20426;-57
2021/04/03 11:11:23;;;;;;;10.67;4.40;;;22.60;31.70;;;;;;5033571;28;20398;-58
2021/04/03 11:13:49;;;;;;;8.98;4.55;;;22.60;31.60;;;;;;5033289;28;20392;-57
2021/04/03 11:16:15;;;;;;;9.68;5.00;;;22.60;31.50;;;;;;5033099;28;20419;-58
2021/04/03 11:18:40;;;;;;;9.60;5.20;;;22.60;31.50;;;;;;5033720;28;20414;-57
2021/04/03 11:21:06;;;;;;;7.28;4.65;;;22.60;31.50;;;;;;5033258;28;20752;-58
2021/04/03 11:23:32;;;;;;;8.20;3.90;;;22.70;31.50;;;;;;5033502;28;20564;-57
2021/04/03 11:25:58;;;;;;;7.55;4.35;;;22.70;31.40;;;;;;5033202;28;20394;-57
2021/04/03 11:28:24;;;;;;;7.45;4.25;;;22.70;31.30;;;;;;5033055;28;20887;-57
2021/04/03 11:30:50;;;;;;;6.47;3.67;;;22.70;31.30;;;;;;5033442;28;20387;-57
2021/04/03 11:33:15;;;;;;;6.60;4.00;;;22.70;31.30;;;;;;5033231;28;20394;-57
2021/04/03 11:35:41;;;;;;;6.82;4.47;;;22.60;31.20;;;;;;5033122;28;20437;-57
2021/04/03 11:38:07;;;;;;;5.97;3.57;;;22.60;31.80;;;;;;5032676;28;20943;-57
2021/04/03 11:40:33;;;;;;;6.38;3.80;;;22.60;31.20;;;;;;5032712;28;20384;-57
2021/04/03 11:42:59;;;;;;;5.70;4.05;;;22.60;31.20;;;;;;5033147;28;20886;-57
2021/04/03 11:45:25;;;;;;;7.97;4.73;;;22.60;31.20;;;;;;5032758;28;20438;-57
2021/04/03 11:47:52;;;;;;;16.92;5.28;;;22.60;31.30;;;;;;5042122;28;20425;-57
2021/04/03 11:50:18;;;;;;;18.02;4.75;;;22.60;31.60;;;;;;5052360;28;20432;-57
2021/04/03 11:52:44;;;;;;;11.38;4.25;;;22.50;31.90;;;;;;5051161;28;20492;-57
2021/04/03 11:55:13;;;;;;;8.98;4.47;;;22.50;32.00;;;;;;5049958;28;20398;-57
2021/04/03 11:57:39;;;;;;;10.55;4.20;;;22.60;32.00;;;;;;5051169;28;20458;-57
2021/04/03 12:00:08;;;;;;;9.52;4.43;;;22.60;32.00;;;;;;5050922;28;20386;-58
2021/04/03 12:02:40;;;;;;;19.15;4.30;;;22.50;31.90;;;;;;5051128;28;20476;-57
2021/04/03 12:05:07;;;;;;;18.57;4.40;;;22.50;33.00;;;;;;5051006;28;20390;-58
2021/04/03 12:07:41;;;;;;;15.95;4.20;;;22.60;32.50;;;;;;5051154;28;20413;-57
2021/04/03 12:10:12;;;;;;;19.98;3.88;;;22.60;32.40;;;;;;5051068;28;20427;-57
2021/04/03 12:12:39;;;;;;;9.27;3.67;;;22.70;32.30;;;;;;5051042;28;20837;-57
2021/04/03 12:15:07;;;;;;;13.48;3.95;;;22.70;32.20;;;;;;5050944;28;20421;-57
2021/04/03 12:17:33;;;;;;;12.05;3.55;;;22.70;32.10;;;;;;5050971;28;20380;-57
2021/04/03 12:19:59;;;;;;;11.35;3.42;;;22.80;33.10;;;;;;5050808;28;20397;-57
2021/04/03 12:22:25;;;;;;;9.20;3.10;;;22.80;33.50;;;;;;5050524;28;20523;-57
2021/04/03 12:24:50;;;;;;;13.05;3.45;;;22.80;33.40;;;;;;5050900;28;20733;-57
2021/04/03 12:27:16;;;;;;;9.00;3.03;;;22.80;33.30;;;;;;5050774;28;20421;-58
2021/04/03 12:29:42;;;;;;;8.70;3.03;;;22.90;33.00;;;;;;5050830;28;20401;-58
2021/04/03 12:32:08;;;;;;;8.83;3.40;;;22.90;33.20;;;;;;5050160;28;20394;-58
2021/04/03 12:34:33;;;;;;;7.27;3.53;;;22.90;33.10;;;;;;5050692;28;20467;-57
2021/04/03 12:36:59;;;;;;;7.32;3.90;;;22.80;33.10;;;;;;5050627;28;20400;-58
2021/04/03 12:39:25;;;;;;;8.23;3.28;;;22.80;33.20;;;;;;5050470;28;20736;-58
2021/04/03 12:41:50;;;;;;;8.50;4.03;;;22.90;33.10;;;;;;5050310;28;20394;-58
2021/04/03 12:44:16;;;;;;;6.95;3.33;;;22.80;32.50;;;;;;5049556;28;20386;-58
2021/04/03 12:46:42;;;;;;;9.52;3.90;;;22.80;32.80;;;;;;5050295;28;20437;-57
2021/04/03 12:49:08;;;;;;;7.72;3.33;;;22.90;32.60;;;;;;5050463;28;20885;-57